createdAt,value
2022-11-12T00:09:19.108Z,15.60
2022-11-12T00:19:58.709Z,17.70
2022-11-12T00:25:18.573Z,19.58
2022-11-12T00:30:40.101Z,18.80
2022-11-12T00:36:00.183Z,20.90
2022-11-12T00:41:20.071Z,16.52
2022-11-12T00:46:39.787Z,16.52
2022-11-12T00:51:59.726Z,18.77
2022-11-12T01:02:44.182Z,18.13
2022-11-12T01:08:06.207Z,17.48
2022-11-12T01:18:47.300Z,16.70
2022-11-12T01:24:08.219Z,17.98
2022-11-12T01:29:27.987Z,16.10
2022-11-12T01:34:47.717Z,20.23
2022-11-12T01:40:08.342Z,15.80
2022-11-12T01:45:28.397Z,20.52
2022-11-12T01:50:48.699Z,31.33
2022-11-12T01:56:08.975Z,20.35
2022-11-12T02:01:28.833Z,20.80
2022-11-12T02:06:50.963Z,25.88
2022-11-12T02:12:11.135Z,22.20
2022-11-12T02:17:31.256Z,30.42
2022-11-12T02:28:10.957Z,35.13
2022-11-12T02:33:30.972Z,25.48
2022-11-12T02:38:50.888Z,26.60
2022-11-12T02:44:10.653Z,22.48
2022-11-12T02:54:50.420Z,16.20
2022-11-12T03:00:12.669Z,10.63
2022-11-12T03:05:34.797Z,10.00
2022-11-12T03:10:54.961Z,8.77
2022-11-12T03:21:34.662Z,11.32
2022-11-12T03:32:14.397Z,7.55
2022-11-12T03:37:34.209Z,12.45
2022-11-12T03:42:54.319Z,13.80
2022-11-12T03:48:14.381Z,18.70
2022-11-12T03:58:53.928Z,29.35
2022-11-12T04:04:13.765Z,38.70
2022-11-12T04:09:33.939Z,43.97
2022-11-12T04:14:53.818Z,39.75
2022-11-12T04:20:13.702Z,37.70
2022-11-12T04:25:33.572Z,46.55
2022-11-12T04:36:13.366Z,42.67
2022-11-12T04:41:33.153Z,46.20
2022-11-12T04:52:12.746Z,50.85
2022-11-12T04:57:32.777Z,40.63
2022-11-12T05:02:52.804Z,36.05
2022-11-12T05:13:32.431Z,17.15
2022-11-12T05:24:27.711Z,16.92
2022-11-12T05:29:52.101Z,26.08
2022-11-12T05:35:11.813Z,15.98
2022-11-12T05:40:31.572Z,19.60
2022-11-12T05:45:51.248Z,16.90
2022-11-12T05:51:13.395Z,19.52
2022-11-12T05:56:34.326Z,15.00
2022-11-12T06:01:54.240Z,21.13
2022-11-12T06:07:14.005Z,17.58
2022-11-12T06:17:54.438Z,15.95
2022-11-12T06:23:14.554Z,17.77
2022-11-12T06:28:34.325Z,13.35
2022-11-12T06:33:54.091Z,15.32
2022-11-12T06:39:13.990Z,10.77
2022-11-12T06:44:34.136Z,10.90
2022-11-12T06:49:54.032Z,12.82
2022-11-12T06:55:14.337Z,15.07
2022-11-12T07:00:34.175Z,13.20
2022-11-12T07:05:54.093Z,10.10
2022-11-12T07:11:13.846Z,13.02
2022-11-12T07:21:54.002Z,9.33
2022-11-12T07:32:36.273Z,12.07
2022-11-12T07:38:00.214Z,10.40
2022-11-12T07:43:19.979Z,10.85
2022-11-12T07:48:40.688Z,11.15
2022-11-12T07:54:00.520Z,11.70
2022-11-12T08:04:40.131Z,10.95
2022-11-12T08:09:59.994Z,11.13
2022-11-12T08:15:19.772Z,10.82
2022-11-12T08:20:39.745Z,10.52
2022-11-12T08:26:01.059Z,8.95
2022-11-12T08:31:22.244Z,12.75
2022-11-12T08:36:42.051Z,11.38
2022-11-12T08:42:01.827Z,11.80
2022-11-12T08:47:21.487Z,16.70
2022-11-12T08:52:41.467Z,11.70
2022-11-12T08:58:01.948Z,15.80
2022-11-12T09:03:24.603Z,14.68
2022-11-12T09:08:44.253Z,13.52
2022-11-12T09:19:23.809Z,22.35
2022-11-12T09:24:43.538Z,16.70
2022-11-12T09:30:03.961Z,18.67
2022-11-12T09:35:23.751Z,24.15
2022-11-12T09:40:52.654Z,21.73
2022-11-12T09:46:38.910Z,20.13
2022-11-12T09:52:14.152Z,20.90
2022-11-12T09:57:34.443Z,18.40
2022-11-12T10:02:54.298Z,21.35
2022-11-12T10:08:37.690Z,23.80
2022-11-12T10:14:13.134Z,21.55
2022-11-12T10:20:00.818Z,25.08
2022-11-12T10:25:21.068Z,23.50
2022-11-12T10:30:42.774Z,22.95
2022-11-12T10:36:26.238Z,24.70
2022-11-12T10:41:46.489Z,29.80
2022-11-12T10:52:38.397Z,27.65
2022-11-12T11:03:36.121Z,24.42
2022-11-12T11:09:16.975Z,22.20
2022-11-12T11:14:37.189Z,23.33
2022-11-12T11:19:56.852Z,24.02
2022-11-12T11:25:26.968Z,21.35
2022-11-12T11:31:17.684Z,18.48
2022-11-12T11:37:04.493Z,17.60
2022-11-12T11:42:52.023Z,19.58
2022-11-12T11:48:22.032Z,23.70
2022-11-12T11:59:45.684Z,21.58
2022-11-12T12:05:17.776Z,23.98
2022-11-12T12:11:11.254Z,20.52
2022-11-12T12:16:58.003Z,21.13
2022-11-12T12:22:24.595Z,27.25
2022-11-12T12:27:53.840Z,25.13
2022-11-12T12:33:35.994Z,23.77
2022-11-12T12:39:18.663Z,21.60
2022-11-12T12:44:45.537Z,24.73
2022-11-12T12:50:11.938Z,28.05
2022-11-12T12:55:40.344Z,24.08
2022-11-12T13:01:02.474Z,26.20
2022-11-12T13:06:22.675Z,27.27
2022-11-12T13:17:08.318Z,27.87
2022-11-12T13:22:28.011Z,23.15
2022-11-12T13:27:47.729Z,21.80
2022-11-12T13:38:42.508Z,23.13
2022-11-12T13:44:07.429Z,23.67
2022-11-12T13:49:27.254Z,24.02
2022-11-12T14:00:18.780Z,25.70
2022-11-12T14:05:38.803Z,24.35
2022-11-12T14:11:06.093Z,25.73
2022-11-12T14:16:37.832Z,24.10
2022-11-12T14:22:02.117Z,24.58
2022-11-12T14:27:28.196Z,21.77
2022-11-12T14:32:54.203Z,27.05
2022-11-12T14:38:25.151Z,33.22
2022-11-12T14:44:10.887Z,27.25
2022-11-12T14:49:44.290Z,24.75
2022-11-12T14:55:14.737Z,29.70
2022-11-12T15:00:41.978Z,27.17
2022-11-12T15:06:02.042Z,22.95
2022-11-12T15:16:46.188Z,26.25
2022-11-12T15:27:41.160Z,23.10
2022-11-12T15:33:13.386Z,26.33
2022-11-12T15:38:35.854Z,27.77
2022-11-12T15:43:56.555Z,20.63
2022-11-12T15:49:16.794Z,22.63
2022-11-12T16:00:08.375Z,29.83
2022-11-12T16:05:29.059Z,27.48
2022-11-12T16:16:11.765Z,22.02
2022-11-12T16:21:31.503Z,20.80
2022-11-12T16:26:51.760Z,24.25
2022-11-12T16:32:13.711Z,22.95
2022-11-12T16:37:33.819Z,25.20
2022-11-12T16:42:54.157Z,21.45
2022-11-12T16:48:22.205Z,22.45
2022-11-12T16:53:42.458Z,28.77
2022-11-12T17:04:24.486Z,24.88
2022-11-12T17:09:44.421Z,24.63
2022-11-12T17:15:05.551Z,21.23
2022-11-12T17:20:25.598Z,27.52
2022-11-12T17:25:45.313Z,19.67
2022-11-12T17:47:06.458Z,20.95
2022-11-12T17:57:48.619Z,26.15
2022-11-12T18:03:08.520Z,21.17
2022-11-12T18:13:48.264Z,21.98
2022-11-12T18:24:28.553Z,23.05
2022-11-12T18:35:08.438Z,23.02
2022-11-12T18:40:29.162Z,20.45
2022-11-12T18:45:56.542Z,23.27
2022-11-12T18:51:19.254Z,19.17
2022-11-12T18:56:39.057Z,19.88
2022-11-12T19:07:19.399Z,22.90
2022-11-12T19:12:39.688Z,19.23
2022-11-12T19:23:20.495Z,23.80
2022-11-12T19:28:40.950Z,25.70
2022-11-12T19:34:01.125Z,20.40
2022-11-12T19:39:20.884Z,21.23
2022-11-12T19:44:40.914Z,23.80
2022-11-12T19:50:00.927Z,27.65
2022-11-12T19:55:20.774Z,22.05
2022-11-12T20:00:40.621Z,22.95
2022-11-12T20:11:23.362Z,18.65
2022-11-12T20:22:03.092Z,19.60
2022-11-12T20:32:42.794Z,19.00
2022-11-12T20:38:04.049Z,20.02
2022-11-12T20:43:28.929Z,18.63
2022-11-12T20:48:49.369Z,19.00
2022-11-12T20:59:29.245Z,24.03
2022-11-12T21:04:49.259Z,22.63
2022-11-12T21:15:29.193Z,21.93
2022-11-12T21:20:49.090Z,20.65
2022-11-12T21:26:17.734Z,22.77
2022-11-12T21:31:37.690Z,23.63
2022-11-12T21:36:57.736Z,21.55
2022-11-12T21:47:37.474Z,19.58
2022-11-12T21:52:57.533Z,19.67
2022-11-12T22:03:38.161Z,19.42
2022-11-12T22:08:58.342Z,22.98
2022-11-12T22:14:18.414Z,17.60
2022-11-12T22:24:58.081Z,15.85
2022-11-12T22:35:37.977Z,16.60
2022-11-12T22:41:06.309Z,17.45
2022-11-12T22:46:29.158Z,16.63
2022-11-12T22:51:48.963Z,17.27
2022-11-12T23:02:28.453Z,15.45
2022-11-12T23:07:48.265Z,16.33
2022-11-12T23:13:07.952Z,17.23
2022-11-12T23:18:28.438Z,13.88
2022-11-12T23:23:48.843Z,17.00
2022-11-12T23:29:11.260Z,13.82
2022-11-12T23:34:31.339Z,12.95
2022-11-12T23:39:51.163Z,14.00
2022-11-12T23:50:30.785Z,11.30
2022-11-12T23:55:50.579Z,14.77
